MT WASHINGTON (MTW)

Elevation: 920' · LOS ANGELES R basin · Operator: Los Angeles County Fire Dept

Query executed Thursday at 20:32:40   clock

Provisional data, subject to change.
Select a sensor type for a plot of data.

Earlier

Date   /   Time   RAIN     TEMP     REL HUM     BAR PRE     FUEL MS     FUEL TP     WIND SP     WIND DR     PEAK WS     PEAK WD     SOLAR R     BAT VOL    
(PDT)INCHES   DEG F   %   INCHES   %   DEG F   MPH   DEG   MPH   DEG   W/M^2   VOLTS  
07/23/2014 21:00 5.06 71 62 -- 8 71 -- -- -- -- 0.00 12.5
07/23/2014 22:00 5.06 70 65 -- 9 69 -- -- -- -- 0.00 12.5
07/23/2014 23:00 5.06 68 71 -- 9 67 -- -- -- -- 0.00 12.5
07/24/2014 00:00 5.06 67 72 -- 10 65 -- -- -- -- 0.00 12.4
07/24/2014 01:00 5.06 71 64 -- 11 66 -- -- -- -- 0.00 12.4
07/24/2014 02:00 5.06 66 75 -- 11 64 -- -- -- -- 0.00 12.4
07/24/2014 03:00 5.06 69 63 -- 11 67 -- -- -- -- 0.00 12.4
07/24/2014 04:00 5.06 70 63 -- 11 67 -- -- -- -- 0.00 12.3
07/24/2014 05:00 5.06 70 61 -- 11 68 -- -- -- -- 0.00 12.3
07/24/2014 06:00 5.06 71 61 -- 11 68 -- -- -- -- 20.00 12.4
07/24/2014 07:00 5.06 78 47 -- 11 73 -- -- -- -- 177.00 13.2
07/24/2014 08:00 5.06 87 33 -- 10 83 -- -- -- -- 418.00 13.4
07/24/2014 09:00 5.06 86 30 -- 9 97 -- -- -- -- 603.00 13.4
07/24/2014 10:00 5.06 91 27 -- 8 105 -- -- -- -- 757.00 13.3
07/24/2014 11:00 5.06 95 23 -- 7 111 -- -- -- -- 865.00 13.3
07/24/2014 12:00 5.06 94 27 -- 6 110 -- -- -- -- 918.00 13.3
07/24/2014 13:00 5.06 94 26 -- 6 111 -- -- -- -- 918.00 13.3
07/24/2014 14:00 5.06 95 24 -- 6 104 -- -- -- -- 867.00 13.3
07/24/2014 15:00 5.06 93 26 -- 6 100 -- -- -- -- 631.00 13.4
07/24/2014 16:00 5.06 91 28 -- 6 95 -- -- -- -- 431.00 12.7
07/24/2014 17:00 5.06 89 29 -- 6 86 -- -- -- -- 306.00 12.6
07/24/2014 18:00 5.06 83 33 -- 6 83 -- -- -- -- 20.00 12.6
07/24/2014 19:00 5.06 80 42 -- 6 80 -- -- -- -- 11.00 12.5
07/24/2014 20:00 -- -- -- -- -- -- -- -- -- -- -- --

Later | Latest

Warning! This data is preliminary and subject to revision.

Download Data Now Download Data Now | Show MTW Map | 24 Hours MTW Data | Plot all MTW Sensors | Daily MTW Data | MTW Info